sensor_id;sensor_type;location;lat;lon;timestamp;pressure;altitude;pressure_sealevel;temperature;humidity
76868;BME280;66168;45.478;11.060;2022-12-29T00:01:41;101529.34;;;9.37;70.82
76868;BME280;66168;45.478;11.060;2022-12-29T00:04:17;101528.39;;;9.38;70.73
76868;BME280;66168;45.478;11.060;2022-12-29T00:06:44;101525.73;;;9.37;70.71
76868;BME280;66168;45.478;11.060;2022-12-29T00:09:12;101521.19;;;9.37;70.61
76868;BME280;66168;45.478;11.060;2022-12-29T00:11:39;101519.34;;;9.36;70.71
76868;BME280;66168;45.478;11.060;2022-12-29T00:14:08;101517.87;;;9.35;70.75
76868;BME280;66168;45.478;11.060;2022-12-29T00:16:54;101510.89;;;9.34;70.73
76868;BME280;66168;45.478;11.060;2022-12-29T00:19:21;101499.80;;;9.31;70.77
76868;BME280;66168;45.478;11.060;2022-12-29T00:22:10;101488.55;;;9.31;70.80
76868;BME280;66168;45.478;11.060;2022-12-29T00:24:56;101482.22;;;9.32;70.81
76868;BME280;66168;45.478;11.060;2022-12-29T00:27:43;101477.25;;;9.34;70.98
76868;BME280;66168;45.478;11.060;2022-12-29T00:30:33;101477.38;;;9.36;71.01
76868;BME280;66168;45.478;11.060;2022-12-29T00:33:21;101483.79;;;9.39;71.00
76868;BME280;66168;45.478;11.060;2022-12-29T00:36:20;101479.46;;;9.42;70.92
76868;BME280;66168;45.478;11.060;2022-12-29T00:38:51;101482.73;;;9.43;70.79
76868;BME280;66168;45.478;11.060;2022-12-29T00:41:38;101483.97;;;9.45;70.91
76868;BME280;66168;45.478;11.060;2022-12-29T00:44:34;101486.20;;;9.42;70.80
76868;BME280;66168;45.478;11.060;2022-12-29T00:47:01;101485.18;;;9.38;70.59
76868;BME280;66168;45.478;11.060;2022-12-29T00:49:31;101482.86;;;9.29;70.68
76868;BME280;66168;45.478;11.060;2022-12-29T00:52:07;101473.94;;;9.24;70.84
76868;BME280;66168;45.478;11.060;2022-12-29T00:54:37;101481.58;;;9.20;71.14
76868;BME280;66168;45.478;11.060;2022-12-29T00:57:07;101493.14;;;9.14;71.37
76868;BME280;66168;45.478;11.060;2022-12-29T00:59:38;101492.84;;;9.08;71.36
76868;BME280;66168;45.478;11.060;2022-12-29T01:02:05;101489.98;;;9.07;71.51
76868;BME280;66168;45.478;11.060;2022-12-29T01:04:32;101493.05;;;9.06;71.43
76868;BME280;66168;45.478;11.060;2022-12-29T01:06:59;101494.65;;;9.06;71.40
76868;BME280;66168;45.478;11.060;2022-12-29T01:09:26;101504.92;;;9.06;71.44
76868;BME280;66168;45.478;11.060;2022-12-29T01:12:12;101506.52;;;9.04;71.49
76868;BME280;66168;45.478;11.060;2022-12-29T01:14:40;101502.56;;;9.03;71.63
76868;BME280;66168;45.478;11.060;2022-12-29T01:17:07;101506.96;;;9.01;71.59
76868;BME280;66168;45.478;11.060;2022-12-29T01:19:33;101507.93;;;9.04;71.62
76868;BME280;66168;45.478;11.060;2022-12-29T01:22:00;101510.96;;;9.05;71.69
76868;BME280;66168;45.478;11.060;2022-12-29T01:24:27;101510.10;;;9.07;71.91
76868;BME280;66168;45.478;11.060;2022-12-29T01:26:54;101510.81;;;9.11;71.92
76868;BME280;66168;45.478;11.060;2022-12-29T01:29:22;101507.37;;;9.13;71.82
76868;BME280;66168;45.478;11.060;2022-12-29T01:31:48;101507.90;;;9.15;71.82
76868;BME280;66168;45.478;11.060;2022-12-29T01:34:17;101508.83;;;9.16;71.75
76868;BME280;66168;45.478;11.060;2022-12-29T01:36:44;101501.73;;;9.17;71.75
76868;BME280;66168;45.478;11.060;2022-12-29T01:39:12;101501.45;;;9.16;71.61
76868;BME280;66168;45.478;11.060;2022-12-29T01:41:39;101504.71;;;9.13;71.77
76868;BME280;66168;45.478;11.060;2022-12-29T01:47:08;101509.27;;;9.07;71.78
76868;BME280;66168;45.478;11.060;2022-12-29T01:49:35;101514.87;;;9.09;71.72
76868;BME280;66168;45.478;11.060;2022-12-29T01:52:05;101513.88;;;9.12;71.87
76868;BME280;66168;45.478;11.060;2022-12-29T01:54:39;101512.36;;;9.15;72.06
76868;BME280;66168;45.478;11.060;2022-12-29T01:57:16;101508.53;;;9.18;71.87
76868;BME280;66168;45.478;11.060;2022-12-29T02:00:05;101511.65;;;9.20;71.88
76868;BME280;66168;45.478;11.060;2022-12-29T02:02:49;101516.80;;;9.22;71.80
76868;BME280;66168;45.478;11.060;2022-12-29T02:05:23;101515.31;;;9.23;71.82
76868;BME280;66168;45.478;11.060;2022-12-29T02:07:52;101519.45;;;9.22;71.92
76868;BME280;66168;45.478;11.060;2022-12-29T02:10:21;101509.49;;;9.21;71.76
76868;BME280;66168;45.478;11.060;2022-12-29T02:12:49;101498.71;;;9.19;71.81
76868;BME280;66168;45.478;11.060;2022-12-29T02:15:16;101493.73;;;9.17;71.76
76868;BME280;66168;45.478;11.060;2022-12-29T02:20:31;101492.99;;;9.18;71.97
76868;BME280;66168;45.478;11.060;2022-12-29T02:31:49;101476.67;;;9.20;72.23
76868;BME280;66168;45.478;11.060;2022-12-29T02:42:05;101467.71;;;9.17;71.98
76868;BME280;66168;45.478;11.060;2022-12-29T02:45:01;101462.55;;;9.12;71.96
76868;BME280;66168;45.478;11.060;2022-12-29T02:48:09;101458.30;;;9.11;72.21
76868;BME280;66168;45.478;11.060;2022-12-29T02:51:10;101455.29;;;9.10;72.41
76868;BME280;66168;45.478;11.060;2022-12-29T02:53:41;101457.80;;;9.12;72.50
76868;BME280;66168;45.478;11.060;2022-12-29T02:56:27;101458.59;;;9.15;72.52
76868;BME280;66168;45.478;11.060;2022-12-29T02:58:54;101461.45;;;9.13;72.48
76868;BME280;66168;45.478;11.060;2022-12-29T03:01:44;101456.63;;;9.07;72.53
76868;BME280;66168;45.478;11.060;2022-12-29T03:05:04;101453.00;;;8.99;72.87
76868;BME280;66168;45.478;11.060;2022-12-29T03:13:25;101450.66;;;8.98;73.27
76868;BME280;66168;45.478;11.060;2022-12-29T03:16:19;101448.99;;;8.98;73.31
76868;BME280;66168;45.478;11.060;2022-12-29T03:21:39;101444.21;;;9.04;73.77
76868;BME280;66168;45.478;11.060;2022-12-29T03:24:32;101441.22;;;9.06;73.71
76868;BME280;66168;45.478;11.060;2022-12-29T03:27:05;101441.44;;;9.09;73.83
76868;BME280;66168;45.478;11.060;2022-12-29T03:29:50;101446.38;;;9.11;73.78
76868;BME280;66168;45.478;11.060;2022-12-29T03:32:26;101453.20;;;9.12;73.61
76868;BME280;66168;45.478;11.060;2022-12-29T03:34:55;101457.77;;;9.11;73.60
76868;BME280;66168;45.478;11.060;2022-12-29T03:37:28;101455.02;;;9.10;73.78
76868;BME280;66168;45.478;11.060;2022-12-29T03:39:57;101447.65;;;9.09;73.83
76868;BME280;66168;45.478;11.060;2022-12-29T03:42:26;101439.89;;;9.09;74.04
76868;BME280;66168;45.478;11.060;2022-12-29T03:44:56;101437.09;;;9.10;74.27
76868;BME280;66168;45.478;11.060;2022-12-29T03:47:24;101433.65;;;9.11;74.46
76868;BME280;66168;45.478;11.060;2022-12-29T03:49:52;101435.27;;;9.13;74.41
76868;BME280;66168;45.478;11.060;2022-12-29T03:52:20;101434.84;;;9.12;74.51
76868;BME280;66168;45.478;11.060;2022-12-29T03:54:48;101428.42;;;9.10;74.57
76868;BME280;66168;45.478;11.060;2022-12-29T03:57:15;101424.24;;;9.06;74.68
76868;BME280;66168;45.478;11.060;2022-12-29T03:59:52;101426.16;;;9.04;74.67
76868;BME280;66168;45.478;11.060;2022-12-29T04:02:19;101426.86;;;9.06;74.70
76868;BME280;66168;45.478;11.060;2022-12-29T04:04:46;101424.27;;;9.08;74.71
76868;BME280;66168;45.478;11.060;2022-12-29T04:07:13;101424.70;;;9.12;74.90
76868;BME280;66168;45.478;11.060;2022-12-29T04:09:41;101424.65;;;9.14;74.95
76868;BME280;66168;45.478;11.060;2022-12-29T04:12:10;101439.87;;;9.18;74.97
76868;BME280;66168;45.478;11.060;2022-12-29T04:14:37;101432.49;;;9.21;74.84
76868;BME280;66168;45.478;11.060;2022-12-29T04:17:04;101428.05;;;9.25;74.86
76868;BME280;66168;45.478;11.060;2022-12-29T04:19:31;101434.14;;;9.26;74.84
76868;BME280;66168;45.478;11.060;2022-12-29T04:21:58;101435.57;;;9.26;74.76
76868;BME280;66168;45.478;11.060;2022-12-29T04:24:25;101439.95;;;9.28;74.55
76868;BME280;66168;45.478;11.060;2022-12-29T04:26:51;101443.96;;;9.29;74.69
76868;BME280;66168;45.478;11.060;2022-12-29T04:29:42;101441.65;;;9.29;74.84
76868;BME280;66168;45.478;11.060;2022-12-29T04:32:22;101438.08;;;9.29;74.87
76868;BME280;66168;45.478;11.060;2022-12-29T04:34:51;101436.45;;;9.29;75.02
76868;BME280;66168;45.478;11.060;2022-12-29T04:37:18;101442.85;;;9.29;75.04
76868;BME280;66168;45.478;11.060;2022-12-29T04:39:45;101447.58;;;9.28;75.02
76868;BME280;66168;45.478;11.060;2022-12-29T04:42:12;101449.90;;;9.28;74.89
76868;BME280;66168;45.478;11.060;2022-12-29T04:44:40;101445.13;;;9.28;74.71
76868;BME280;66168;45.478;11.060;2022-12-29T04:47:21;101432.31;;;9.32;74.82
76868;BME280;66168;45.478;11.060;2022-12-29T04:50:03;101424.30;;;9.32;75.04
76868;BME280;66168;45.478;11.060;2022-12-29T04:52:39;101425.90;;;9.32;75.06
76868;BME280;66168;45.478;11.060;2022-12-29T04:55:08;101431.03;;;9.32;74.96
76868;BME280;66168;45.478;11.060;2022-12-29T04:57:35;101429.52;;;9.33;74.97
76868;BME280;66168;45.478;11.060;2022-12-29T05:00:03;101434.95;;;9.34;75.12
76868;BME280;66168;45.478;11.060;2022-12-29T05:02:30;101438.89;;;9.33;75.14
76868;BME280;66168;45.478;11.060;2022-12-29T05:04:57;101439.34;;;9.32;75.13
76868;BME280;66168;45.478;11.060;2022-12-29T05:07:25;101438.02;;;9.31;75.01
76868;BME280;66168;45.478;11.060;2022-12-29T05:09:52;101439.26;;;9.35;74.96
76868;BME280;66168;45.478;11.060;2022-12-29T05:12:19;101447.13;;;9.38;75.09
76868;BME280;66168;45.478;11.060;2022-12-29T05:14:58;101454.65;;;9.37;75.03
76868;BME280;66168;45.478;11.060;2022-12-29T05:17:25;101455.92;;;9.33;75.14
76868;BME280;66168;45.478;11.060;2022-12-29T05:19:52;101440.84;;;9.30;75.16
76868;BME280;66168;45.478;11.060;2022-12-29T05:22:20;101430.50;;;9.29;75.34
76868;BME280;66168;45.478;11.060;2022-12-29T05:24:47;101431.18;;;9.27;75.26
76868;BME280;66168;45.478;11.060;2022-12-29T05:27:14;101434.84;;;9.26;75.32
76868;BME280;66168;45.478;11.060;2022-12-29T05:30:13;101439.14;;;9.25;75.34
76868;BME280;66168;45.478;11.060;2022-12-29T05:32:40;101448.60;;;9.28;75.31
76868;BME280;66168;45.478;11.060;2022-12-29T05:35:08;101449.54;;;9.31;75.27
76868;BME280;66168;45.478;11.060;2022-12-29T05:37:36;101444.98;;;9.34;75.53
76868;BME280;66168;45.478;11.060;2022-12-29T05:40:03;101435.48;;;9.37;75.43
76868;BME280;66168;45.478;11.060;2022-12-29T05:42:30;101442.05;;;9.41;75.39
76868;BME280;66168;45.478;11.060;2022-12-29T05:45:13;101454.80;;;9.35;75.28
76868;BME280;66168;45.478;11.060;2022-12-29T05:47:58;101454.93;;;9.27;75.54
76868;BME280;66168;45.478;11.060;2022-12-29T05:50:51;101460.67;;;9.17;75.34
76868;BME280;66168;45.478;11.060;2022-12-29T05:53:23;101455.06;;;9.09;75.67
76868;BME280;66168;45.478;11.060;2022-12-29T05:55:50;101445.52;;;9.09;75.65
76868;BME280;66168;45.478;11.060;2022-12-29T05:58:17;101444.48;;;9.11;75.90
76868;BME280;66168;45.478;11.060;2022-12-29T06:00:44;101450.39;;;9.14;76.21
76868;BME280;66168;45.478;11.060;2022-12-29T06:03:11;101450.52;;;9.14;76.24
76868;BME280;66168;45.478;11.060;2022-12-29T06:05:39;101448.86;;;9.14;76.20
76868;BME280;66168;45.478;11.060;2022-12-29T06:08:05;101446.29;;;9.14;76.33
76868;BME280;66168;45.478;11.060;2022-12-29T06:10:33;101446.70;;;9.13;76.23
76868;BME280;66168;45.478;11.060;2022-12-29T06:13:07;101446.75;;;9.15;76.27
76868;BME280;66168;45.478;11.060;2022-12-29T06:15:36;101445.45;;;9.17;76.18
76868;BME280;66168;45.478;11.060;2022-12-29T06:18:06;101447.88;;;9.19;76.21
76868;BME280;66168;45.478;11.060;2022-12-29T06:20:33;101447.04;;;9.22;76.41
76868;BME280;66168;45.478;11.060;2022-12-29T06:23:02;101441.73;;;9.24;76.61
76868;BME280;66168;45.478;11.060;2022-12-29T06:25:30;101440.13;;;9.26;76.44
76868;BME280;66168;45.478;11.060;2022-12-29T06:27:58;101435.40;;;9.27;76.65
76868;BME280;66168;45.478;11.060;2022-12-29T06:30:26;101435.92;;;9.28;76.34
76868;BME280;66168;45.478;11.060;2022-12-29T06:32:53;101441.91;;;9.24;76.35
76868;BME280;66168;45.478;11.060;2022-12-29T06:35:21;101439.74;;;9.17;76.26
76868;BME280;66168;45.478;11.060;2022-12-29T06:37:51;101435.54;;;9.12;76.30
76868;BME280;66168;45.478;11.060;2022-12-29T06:40:19;101432.02;;;9.09;76.60
76868;BME280;66168;45.478;11.060;2022-12-29T06:43:19;101425.50;;;9.09;76.81
76868;BME280;66168;45.478;11.060;2022-12-29T06:46:18;101429.48;;;9.10;76.74
76868;BME280;66168;45.478;11.060;2022-12-29T06:48:45;101431.73;;;9.12;76.64
76868;BME280;66168;45.478;11.060;2022-12-29T06:51:12;101429.27;;;9.12;76.45
76868;BME280;66168;45.478;11.060;2022-12-29T06:53:39;101437.56;;;9.13;76.50
76868;BME280;66168;45.478;11.060;2022-12-29T06:56:06;101438.25;;;9.09;76.26
76868;BME280;66168;45.478;11.060;2022-12-29T06:58:32;101442.96;;;9.04;76.37
76868;BME280;66168;45.478;11.060;2022-12-29T07:00:59;101448.11;;;9.00;76.35
76868;BME280;66168;45.478;11.060;2022-12-29T07:03:26;101445.25;;;8.97;76.74
76868;BME280;66168;45.478;11.060;2022-12-29T07:05:53;101445.96;;;8.95;76.96
76868;BME280;66168;45.478;11.060;2022-12-29T07:08:21;101450.13;;;8.94;76.90
76868;BME280;66168;45.478;11.060;2022-12-29T07:10:47;101453.55;;;8.95;77.02
76868;BME280;66168;45.478;11.060;2022-12-29T07:13:14;101455.38;;;8.95;76.79
76868;BME280;66168;45.478;11.060;2022-12-29T07:15:41;101460.91;;;8.98;76.74
76868;BME280;66168;45.478;11.060;2022-12-29T07:18:07;101461.52;;;9.01;76.80
76868;BME280;66168;45.478;11.060;2022-12-29T07:20:34;101461.66;;;9.03;76.88
76868;BME280;66168;45.478;11.060;2022-12-29T07:23:02;101458.13;;;9.01;76.83
76868;BME280;66168;45.478;11.060;2022-12-29T07:25:28;101463.39;;;8.99;77.18
76868;BME280;66168;45.478;11.060;2022-12-29T07:27:56;101467.39;;;8.98;77.19
76868;BME280;66168;45.478;11.060;2022-12-29T07:30:22;101471.80;;;8.98;77.15
76868;BME280;66168;45.478;11.060;2022-12-29T07:32:49;101466.73;;;8.98;77.11
76868;BME280;66168;45.478;11.060;2022-12-29T07:35:16;101465.27;;;9.02;76.96
76868;BME280;66168;45.478;11.060;2022-12-29T07:37:43;101466.15;;;9.08;77.15
76868;BME280;66168;45.478;11.060;2022-12-29T07:40:10;101474.02;;;9.13;77.14
76868;BME280;66168;45.478;11.060;2022-12-29T07:42:37;101483.77;;;9.16;77.14
76868;BME280;66168;45.478;11.060;2022-12-29T07:45:07;101477.23;;;9.19;77.19
76868;BME280;66168;45.478;11.060;2022-12-29T07:47:48;101473.67;;;9.22;77.17
76868;BME280;66168;45.478;11.060;2022-12-29T07:50:15;101473.58;;;9.23;77.24
76868;BME280;66168;45.478;11.060;2022-12-29T07:52:42;101473.74;;;9.25;77.10
76868;BME280;66168;45.478;11.060;2022-12-29T07:55:09;101472.64;;;9.29;77.15
76868;BME280;66168;45.478;11.060;2022-12-29T07:57:36;101462.73;;;9.34;77.04
76868;BME280;66168;45.478;11.060;2022-12-29T08:00:03;101458.15;;;9.37;77.16
76868;BME280;66168;45.478;11.060;2022-12-29T08:02:37;101450.19;;;9.41;77.06
76868;BME280;66168;45.478;11.060;2022-12-29T08:05:04;101453.39;;;9.46;77.02
76868;BME280;66168;45.478;11.060;2022-12-29T08:07:31;101460.67;;;9.49;76.76
76868;BME280;66168;45.478;11.060;2022-12-29T08:09:58;101476.40;;;9.44;76.67
76868;BME280;66168;45.478;11.060;2022-12-29T08:12:25;101481.48;;;9.38;76.72
76868;BME280;66168;45.478;11.060;2022-12-29T08:14:52;101493.61;;;9.37;76.78
76868;BME280;66168;45.478;11.060;2022-12-29T08:17:18;101499.19;;;9.37;76.66
76868;BME280;66168;45.478;11.060;2022-12-29T08:19:45;101501.52;;;9.35;76.95
76868;BME280;66168;45.478;11.060;2022-12-29T08:22:13;101503.76;;;9.31;77.11
76868;BME280;66168;45.478;11.060;2022-12-29T08:24:40;101501.48;;;9.27;77.23
76868;BME280;66168;45.478;11.060;2022-12-29T08:27:07;101502.49;;;9.29;77.34
76868;BME280;66168;45.478;11.060;2022-12-29T08:29:45;101506.27;;;9.30;77.22
76868;BME280;66168;45.478;11.060;2022-12-29T08:32:12;101509.77;;;9.33;77.19
76868;BME280;66168;45.478;11.060;2022-12-29T08:34:39;101507.70;;;9.34;76.95
76868;BME280;66168;45.478;11.060;2022-12-29T08:37:05;101509.04;;;9.38;76.99
76868;BME280;66168;45.478;11.060;2022-12-29T08:39:32;101520.39;;;9.40;77.10
76868;BME280;66168;45.478;11.060;2022-12-29T08:41:59;101520.39;;;9.40;77.18
76868;BME280;66168;45.478;11.060;2022-12-29T08:44:26;101528.11;;;9.38;77.16
76868;BME280;66168;45.478;11.060;2022-12-29T08:46:52;101530.25;;;9.38;77.08
76868;BME280;66168;45.478;11.060;2022-12-29T08:49:19;101527.17;;;9.41;77.18
76868;BME280;66168;45.478;11.060;2022-12-29T08:51:46;101520.39;;;9.43;76.94
76868;BME280;66168;45.478;11.060;2022-12-29T08:54:13;101536.90;;;9.46;77.06
76868;BME280;66168;45.478;11.060;2022-12-29T08:56:39;101536.63;;;9.51;76.96
76868;BME280;66168;45.478;11.060;2022-12-29T08:59:07;101529.61;;;9.56;76.97
76868;BME280;66168;45.478;11.060;2022-12-29T09:01:34;101536.98;;;9.61;77.10
76868;BME280;66168;45.478;11.060;2022-12-29T09:04:03;101546.86;;;9.63;77.02
76868;BME280;66168;45.478;11.060;2022-12-29T09:06:41;101540.70;;;9.64;76.96
76868;BME280;66168;45.478;11.060;2022-12-29T09:09:08;101536.88;;;9.63;76.88
76868;BME280;66168;45.478;11.060;2022-12-29T09:11:34;101536.59;;;9.64;76.85
76868;BME280;66168;45.478;11.060;2022-12-29T09:14:01;101535.38;;;9.66;76.73
76868;BME280;66168;45.478;11.060;2022-12-29T09:16:28;101537.53;;;9.69;76.61
76868;BME280;66168;45.478;11.060;2022-12-29T09:18:55;101530.38;;;9.72;76.65
76868;BME280;66168;45.478;11.060;2022-12-29T09:21:21;101526.02;;;9.75;76.88
76868;BME280;66168;45.478;11.060;2022-12-29T09:23:48;101518.31;;;9.77;76.88
76868;BME280;66168;45.478;11.060;2022-12-29T09:26:15;101519.73;;;9.79;76.73
76868;BME280;66168;45.478;11.060;2022-12-29T09:28:42;101519.30;;;9.80;76.67
76868;BME280;66168;45.478;11.060;2022-12-29T09:31:10;101520.19;;;9.80;76.78
76868;BME280;66168;45.478;11.060;2022-12-29T09:33:37;101523.08;;;9.81;76.68
76868;BME280;66168;45.478;11.060;2022-12-29T09:36:04;101522.11;;;9.84;76.57
76868;BME280;66168;45.478;11.060;2022-12-29T09:38:31;101523.61;;;9.85;76.69
76868;BME280;66168;45.478;11.060;2022-12-29T09:46:26;101516.08;;;9.87;76.94
76868;BME280;66168;45.478;11.060;2022-12-29T09:51:38;101514.68;;;9.91;76.87
76868;BME280;66168;45.478;11.060;2022-12-29T09:56:43;101491.84;;;9.96;76.89
76868;BME280;66168;45.478;11.060;2022-12-29T09:59:14;101498.42;;;10.01;76.92
76868;BME280;66168;45.478;11.060;2022-12-29T10:01:55;101506.31;;;10.07;76.97
76868;BME280;66168;45.478;11.060;2022-12-29T10:04:27;101514.13;;;10.09;76.52
76868;BME280;66168;45.478;11.060;2022-12-29T10:07:00;101515.45;;;9.97;76.63
76868;BME280;66168;45.478;11.060;2022-12-29T10:18:18;101505.31;;;9.57;77.67
76868;BME280;66168;45.478;11.060;2022-12-29T10:20:55;101495.90;;;9.60;77.72
76868;BME280;66168;45.478;11.060;2022-12-29T10:25:57;101494.12;;;9.75;77.60
76868;BME280;66168;45.478;11.060;2022-12-29T10:28:38;101486.41;;;9.90;77.60
76868;BME280;66168;45.478;11.060;2022-12-29T10:31:15;101484.77;;;10.07;77.50
76868;BME280;66168;45.478;11.060;2022-12-29T10:33:51;101485.98;;;10.23;77.23
76868;BME280;66168;45.478;11.060;2022-12-29T10:36:57;101478.86;;;10.44;76.85
76868;BME280;66168;45.478;11.060;2022-12-29T10:39:28;101463.56;;;10.73;76.57
76868;BME280;66168;45.478;11.060;2022-12-29T10:44:31;101470.08;;;10.87;75.53
76868;BME280;66168;45.478;11.060;2022-12-29T10:47:02;101466.11;;;10.80;75.44
76868;BME280;66168;45.478;11.060;2022-12-29T10:49:36;101457.43;;;10.80;75.29
76868;BME280;66168;45.478;11.060;2022-12-29T10:52:06;101452.31;;;10.82;74.97
76868;BME280;66168;45.478;11.060;2022-12-29T10:54:41;101453.83;;;10.79;74.50
76868;BME280;66168;45.478;11.060;2022-12-29T10:57:22;101444.05;;;10.73;74.64
76868;BME280;66168;45.478;11.060;2022-12-29T10:59:51;101440.06;;;10.75;74.90
76868;BME280;66168;45.478;11.060;2022-12-29T11:02:31;101443.52;;;10.81;74.65
76868;BME280;66168;45.478;11.060;2022-12-29T11:05:10;101454.06;;;10.84;74.28
76868;BME280;66168;45.478;11.060;2022-12-29T11:07:39;101449.96;;;10.84;74.19
76868;BME280;66168;45.478;11.060;2022-12-29T11:10:36;101445.23;;;10.83;74.16
76868;BME280;66168;45.478;11.060;2022-12-29T11:13:11;101437.27;;;10.78;73.90
76868;BME280;66168;45.478;11.060;2022-12-29T11:15:43;101439.19;;;10.73;74.01
76868;BME280;66168;45.478;11.060;2022-12-29T11:18:24;101443.48;;;10.71;73.93
76868;BME280;66168;45.478;11.060;2022-12-29T11:20:57;101437.60;;;10.65;74.12
76868;BME280;66168;45.478;11.060;2022-12-29T11:23:37;101433.20;;;10.57;74.37
76868;BME280;66168;45.478;11.060;2022-12-29T11:28:38;101406.63;;;10.59;74.65
76868;BME280;66168;45.478;11.060;2022-12-29T11:31:06;101411.33;;;10.67;74.36
76868;BME280;66168;45.478;11.060;2022-12-29T11:33:38;101418.84;;;10.68;74.28
76868;BME280;66168;45.478;11.060;2022-12-29T11:36:10;101423.55;;;10.67;74.46
76868;BME280;66168;45.478;11.060;2022-12-29T11:38:49;101426.90;;;10.70;74.66
76868;BME280;66168;45.478;11.060;2022-12-29T11:41:24;101431.75;;;10.70;74.77
76868;BME280;66168;45.478;11.060;2022-12-29T11:43:55;101432.50;;;10.68;75.06
76868;BME280;66168;45.478;11.060;2022-12-29T11:46:26;101425.17;;;10.65;75.03
76868;BME280;66168;45.478;11.060;2022-12-29T11:48:56;101420.67;;;10.67;74.96
76868;BME280;66168;45.478;11.060;2022-12-29T11:51:27;101422.56;;;10.68;74.97
76868;BME280;66168;45.478;11.060;2022-12-29T11:53:58;101424.05;;;10.67;74.96
76868;BME280;66168;45.478;11.060;2022-12-29T11:56:36;101418.89;;;10.66;74.91
76868;BME280;66168;45.478;11.060;2022-12-29T12:02:40;101417.02;;;10.72;75.02
76868;BME280;66168;45.478;11.060;2022-12-29T12:05:19;101431.65;;;10.69;75.17
76868;BME280;66168;45.478;11.060;2022-12-29T12:07:52;101431.70;;;10.65;75.41
76868;BME280;66168;45.478;11.060;2022-12-29T12:10:26;101432.55;;;10.60;75.34
76868;BME280;66168;45.478;11.060;2022-12-29T12:13:14;101425.40;;;10.54;75.23
76868;BME280;66168;45.478;11.060;2022-12-29T12:15:50;101418.91;;;10.51;75.38
76868;BME280;66168;45.478;11.060;2022-12-29T12:18:33;101418.21;;;10.51;75.31
76868;BME280;66168;45.478;11.060;2022-12-29T12:21:08;101412.71;;;10.48;75.28
76868;BME280;66168;45.478;11.060;2022-12-29T12:26:15;101387.67;;;10.50;75.64
76868;BME280;66168;45.478;11.060;2022-12-29T12:28:58;101375.27;;;10.55;75.88
76868;BME280;66168;45.478;11.060;2022-12-29T12:34:05;101365.09;;;10.63;75.62
76868;BME280;66168;45.478;11.060;2022-12-29T12:37:02;101364.84;;;10.60;75.53
76868;BME280;66168;45.478;11.060;2022-12-29T12:51:20;101392.71;;;10.46;75.90
76868;BME280;66168;45.478;11.060;2022-12-29T12:59:01;101410.02;;;10.45;76.33
76868;BME280;66168;45.478;11.060;2022-12-29T13:01:38;101411.00;;;10.46;76.53
76868;BME280;66168;45.478;11.060;2022-12-29T13:07:02;101382.86;;;10.50;76.55
76868;BME280;66168;45.478;11.060;2022-12-29T13:14:39;101373.08;;;10.49;76.48
76868;BME280;66168;45.478;11.060;2022-12-29T13:17:23;101376.45;;;10.42;76.41
76868;BME280;66168;45.478;11.060;2022-12-29T13:23:07;101393.77;;;10.31;76.66
76868;BME280;66168;45.478;11.060;2022-12-29T13:25:45;101410.96;;;10.24;76.67
76868;BME280;66168;45.478;11.060;2022-12-29T13:31:05;101398.73;;;10.25;77.02
76868;BME280;66168;45.478;11.060;2022-12-29T13:33:58;101383.48;;;10.29;76.98
76868;BME280;66168;45.478;11.060;2022-12-29T13:36:34;101378.66;;;10.32;76.84
76868;BME280;66168;45.478;11.060;2022-12-29T13:39:17;101375.67;;;10.37;76.71
76868;BME280;66168;45.478;11.060;2022-12-29T13:41:53;101377.26;;;10.41;76.46
76868;BME280;66168;45.478;11.060;2022-12-29T13:44:25;101375.73;;;10.42;76.33
76868;BME280;66168;45.478;11.060;2022-12-29T13:47:15;101374.77;;;10.41;76.41
76868;BME280;66168;45.478;11.060;2022-12-29T13:49:46;101378.66;;;10.41;76.37
76868;BME280;66168;45.478;11.060;2022-12-29T13:52:36;101375.59;;;10.40;76.41
76868;BME280;66168;45.478;11.060;2022-12-29T14:00:49;101365.61;;;10.40;76.63
76868;BME280;66168;45.478;11.060;2022-12-29T14:06:32;101358.73;;;10.42;76.60
76868;BME280;66168;45.478;11.060;2022-12-29T14:09:06;101355.36;;;10.45;76.45
76868;BME280;66168;45.478;11.060;2022-12-29T14:12:00;101355.53;;;10.49;76.60
76868;BME280;66168;45.478;11.060;2022-12-29T14:14:31;101359.07;;;10.51;76.50
76868;BME280;66168;45.478;11.060;2022-12-29T14:17:11;101368.33;;;10.50;76.34
76868;BME280;66168;45.478;11.060;2022-12-29T14:19:43;101367.43;;;10.50;76.32
76868;BME280;66168;45.478;11.060;2022-12-29T14:22:11;101365.87;;;10.50;76.09
76868;BME280;66168;45.478;11.060;2022-12-29T14:24:42;101362.44;;;10.47;76.19
76868;BME280;66168;45.478;11.060;2022-12-29T14:34:53;101358.88;;;10.47;76.19
76868;BME280;66168;45.478;11.060;2022-12-29T14:37:31;101350.98;;;10.48;76.13
76868;BME280;66168;45.478;11.060;2022-12-29T14:40:24;101349.55;;;10.50;76.22
76868;BME280;66168;45.478;11.060;2022-12-29T14:42:56;101350.98;;;10.50;76.06
76868;BME280;66168;45.478;11.060;2022-12-29T14:45:29;101355.03;;;10.48;75.93
76868;BME280;66168;45.478;11.060;2022-12-29T14:47:56;101351.83;;;10.45;76.02
76868;BME280;66168;45.478;11.060;2022-12-29T14:50:33;101353.72;;;10.44;76.04
76868;BME280;66168;45.478;11.060;2022-12-29T14:53:05;101358.20;;;10.40;76.31
76868;BME280;66168;45.478;11.060;2022-12-29T14:55:55;101359.89;;;10.36;76.53
76868;BME280;66168;45.478;11.060;2022-12-29T14:58:27;101358.55;;;10.35;76.66
76868;BME280;66168;45.478;11.060;2022-12-29T15:00:55;101360.09;;;10.36;76.54
76868;BME280;66168;45.478;11.060;2022-12-29T15:06:08;101364.59;;;10.30;76.35
76868;BME280;66168;45.478;11.060;2022-12-29T15:11:18;101359.52;;;10.26;76.64
76868;BME280;66168;45.478;11.060;2022-12-29T15:13:46;101351.67;;;10.26;76.67
76868;BME280;66168;45.478;11.060;2022-12-29T15:16:32;101342.16;;;10.28;76.85